createdAt,value
2022-07-25T00:01:51.425Z,101180.50
2022-07-25T00:04:18.980Z,101177.25
2022-07-25T00:06:46.030Z,101165.34
2022-07-25T00:09:13.594Z,101165.63
2022-07-25T00:11:40.673Z,101172.44
2022-07-25T00:14:08.181Z,101169.72
2022-07-25T00:16:35.709Z,101160.53
2022-07-25T00:19:03.210Z,101157.25
2022-07-25T00:21:30.272Z,101155.13
2022-07-25T00:23:57.383Z,101154.88
2022-07-25T00:26:24.515Z,101151.34
2022-07-25T00:28:51.401Z,101152.75
2022-07-25T00:31:20.540Z,101156.31
2022-07-25T00:33:47.509Z,101147.66
2022-07-25T00:36:14.913Z,101152.03
2022-07-25T00:38:41.826Z,101148.25
2022-07-25T00:41:09.268Z,101143.41
2022-07-25T00:43:36.652Z,101147.50
2022-07-25T00:46:04.138Z,101151.59
2022-07-25T00:48:31.124Z,101156.22
2022-07-25T00:50:59.411Z,101148.63
2022-07-25T00:53:26.646Z,101150.28
2022-07-25T00:55:54.959Z,101145.97
2022-07-25T00:58:21.938Z,101136.50
2022-07-25T01:00:49.006Z,101137.84
2022-07-25T01:03:19.380Z,101136.50
2022-07-25T01:05:51.584Z,101135.16
2022-07-25T01:08:22.049Z,101133.28
2022-07-25T01:10:52.259Z,101124.09
2022-07-25T01:13:19.208Z,101129.53
2022-07-25T01:15:48.109Z,101127.09
2022-07-25T01:18:15.366Z,101120.63
2022-07-25T01:20:42.318Z,101119.28
2022-07-25T01:23:09.421Z,101109.00
2022-07-25T01:25:36.507Z,101112.81
2022-07-25T01:28:03.546Z,101105.47
2022-07-25T01:30:30.617Z,101110.66
2022-07-25T01:32:57.575Z,101107.94
2022-07-25T01:35:24.541Z,101104.69
2022-07-25T01:37:51.525Z,101111.22
2022-07-25T01:40:19.058Z,101111.50
2022-07-25T01:42:46.260Z,101108.78
2022-07-25T01:45:13.653Z,101103.13
2022-07-25T01:47:40.954Z,101103.13
2022-07-25T01:50:09.425Z,101095.81
2022-07-25T01:52:37.733Z,101104.75
2022-07-25T01:55:06.273Z,101098.00
2022-07-25T01:57:33.466Z,101086.91
2022-07-25T02:00:10.130Z,101083.38
2022-07-25T02:02:44.509Z,101090.41
2022-07-25T02:05:14.669Z,101088.00
2022-07-25T02:07:44.443Z,101084.22
2022-07-25T02:10:11.529Z,101079.06
2022-07-25T02:12:38.636Z,101074.75
2022-07-25T02:15:06.470Z,101075.03
2022-07-25T02:17:33.768Z,101078.84
2022-07-25T02:20:00.814Z,101075.06
2022-07-25T02:22:27.867Z,101070.72
2022-07-25T02:24:54.834Z,101074.81
2022-07-25T02:27:21.962Z,101076.19
2022-07-25T02:29:48.891Z,101059.41
2022-07-25T02:32:15.997Z,101063.19
2022-07-25T02:34:43.085Z,101055.09
2022-07-25T02:37:10.148Z,101050.25
2022-07-25T02:39:37.219Z,101047.53
2022-07-25T02:42:04.469Z,101047.00
2022-07-25T02:44:31.443Z,101057.28
2022-07-25T02:46:58.535Z,101056.19
2022-07-25T02:49:25.480Z,101050.25
2022-07-25T02:51:52.399Z,101042.66
2022-07-25T02:54:20.050Z,101041.06
2022-07-25T02:56:47.337Z,101036.19
2022-07-25T02:59:14.384Z,101031.03
2022-07-25T03:01:41.325Z,101032.13
2022-07-25T03:04:08.803Z,101037.84
2022-07-25T03:06:36.340Z,101034.59
2022-07-25T03:09:03.613Z,101040.31
2022-07-25T03:11:30.675Z,101033.53
2022-07-25T03:13:57.881Z,101023.25
2022-07-25T03:16:24.909Z,101027.06
2022-07-25T03:18:52.195Z,101034.91
2022-07-25T03:21:19.140Z,101010.84
2022-07-25T03:23:51.979Z,101017.59
2022-07-25T03:26:19.788Z,101020.03
2022-07-25T03:28:47.138Z,101013.25
2022-07-25T03:31:14.205Z,101018.69
2022-07-25T03:33:41.241Z,101006.22
2022-07-25T03:36:10.290Z,101001.91
2022-07-25T03:38:37.624Z,100994.59
2022-07-25T03:41:04.667Z,101007.03
2022-07-25T03:43:32.093Z,100998.34
2022-07-25T03:45:59.224Z,100989.97
2022-07-25T03:48:26.587Z,100991.06
2022-07-25T03:50:53.608Z,101004.56
2022-07-25T03:53:20.728Z,100998.63
2022-07-25T03:55:48.545Z,101000.78
2022-07-25T03:58:15.404Z,100998.06
2022-07-25T04:00:42.516Z,100997.22
2022-07-25T04:03:09.692Z,100986.38
2022-07-25T04:05:36.669Z,100989.34
2022-07-25T04:08:03.890Z,100996.38
2022-07-25T04:10:32.070Z,100981.47
2022-07-25T04:12:58.954Z,100979.28
2022-07-25T04:15:26.370Z,100982.50
2022-07-25T04:17:53.405Z,100974.91
2022-07-25T04:20:20.454Z,100967.81
2022-07-25T04:22:47.913Z,100960.25
2022-07-25T04:25:15.044Z,100960.75
2022-07-25T04:27:41.926Z,100970.72
2022-07-25T04:30:10.725Z,100961.75
2022-07-25T04:32:37.677Z,100963.88
2022-07-25T04:35:05.403Z,100966.00
2022-07-25T04:37:32.894Z,100956.72
2022-07-25T04:39:59.832Z,100959.09
2022-07-25T04:42:27.800Z,100957.69
2022-07-25T04:44:54.839Z,100942.69
2022-07-25T04:47:21.712Z,100933.13
2022-07-25T04:49:49.972Z,100932.50
2022-07-25T04:52:16.873Z,100929.41
2022-07-25T04:54:44.256Z,100929.56
2022-07-25T04:57:11.170Z,100928.63
2022-07-25T04:59:38.123Z,100917.94
2022-07-25T05:02:05.274Z,100910.47
2022-07-25T05:04:32.331Z,100908.44
2022-07-25T05:07:02.582Z,100895.84
2022-07-25T05:09:29.803Z,100896.50
2022-07-25T05:11:56.813Z,100886.28
2022-07-25T05:14:23.697Z,100886.66
2022-07-25T05:16:50.696Z,100889.22
2022-07-25T05:19:17.694Z,100887.34
2022-07-25T05:21:44.873Z,100890.41
2022-07-25T05:24:12.284Z,100889.97
2022-07-25T05:26:39.179Z,100882.34
2022-07-25T05:29:06.174Z,100875.31
2022-07-25T05:31:33.265Z,100871.50
2022-07-25T05:34:00.495Z,100870.91
2022-07-25T05:36:27.369Z,100870.88
2022-07-25T05:38:54.384Z,100862.94
2022-07-25T05:41:21.414Z,100863.44
2022-07-25T05:43:52.605Z,100861.16
2022-07-25T05:46:19.670Z,100857.28
2022-07-25T05:48:50.302Z,100853.41
2022-07-25T05:51:17.616Z,100858.53
2022-07-25T05:53:44.563Z,100849.47
2022-07-25T05:56:11.891Z,100843.31
2022-07-25T05:58:40.451Z,100839.38
2022-07-25T06:01:12.159Z,100841.53
2022-07-25T06:03:39.515Z,100843.56
2022-07-25T06:06:08.718Z,100839.94
2022-07-25T06:08:37.368Z,100837.41
2022-07-25T06:11:06.156Z,100841.31
2022-07-25T06:13:35.565Z,100831.69
2022-07-25T06:16:03.462Z,100827.56
2022-07-25T06:18:30.869Z,100834.16
2022-07-25T06:20:57.784Z,100820.19
2022-07-25T06:23:27.761Z,100819.25
2022-07-25T06:25:54.975Z,100808.13
2022-07-25T06:28:21.949Z,100816.81
2022-07-25T06:30:48.873Z,100801.69
2022-07-25T06:33:16.230Z,100797.97
2022-07-25T06:35:46.537Z,100795.84
2022-07-25T06:38:13.434Z,100786.13
2022-07-25T06:40:40.461Z,100790.13
2022-07-25T06:43:07.828Z,100793.81
2022-07-25T06:45:34.906Z,100788.78
2022-07-25T06:48:02.210Z,100790.00
2022-07-25T06:50:29.192Z,100778.19
2022-07-25T06:52:56.281Z,100776.22
2022-07-25T06:55:23.293Z,100769.53
2022-07-25T06:57:50.212Z,100768.84
2022-07-25T07:00:17.597Z,100776.81
2022-07-25T07:03:03.463Z,100762.38
2022-07-25T07:05:33.748Z,100761.16
2022-07-25T07:08:01.433Z,100744.97
2022-07-25T07:10:28.849Z,100754.50
2022-07-25T07:13:13.909Z,100755.38
2022-07-25T07:15:47.623Z,100737.34
2022-07-25T07:18:14.935Z,100746.41
2022-07-25T07:20:41.798Z,100732.72
2022-07-25T07:23:08.997Z,100730.50
2022-07-25T07:25:37.082Z,100729.00
2022-07-25T07:28:05.174Z,100724.75
2022-07-25T07:31:05.921Z,100720.88
2022-07-25T07:33:20.355Z,100719.03
2022-07-25T07:35:47.410Z,100711.94
2022-07-25T07:38:14.910Z,100718.06
2022-07-25T07:40:41.853Z,100709.97
2022-07-25T07:43:08.834Z,100702.97
2022-07-25T07:45:35.965Z,100714.53
2022-07-25T07:48:02.943Z,100698.09
2022-07-25T07:50:30.279Z,100704.19
2022-07-25T07:52:58.555Z,100699.47
2022-07-25T07:55:44.347Z,100693.22
2022-07-25T07:58:15.532Z,100693.00
2022-07-25T08:00:45.066Z,100696.69
2022-07-25T08:03:12.501Z,100689.22
2022-07-25T08:05:43.513Z,100691.75
2022-07-25T08:08:14.264Z,100688.28
2022-07-25T08:10:47.609Z,100679.75
2022-07-25T08:13:18.627Z,100677.06
2022-07-25T08:15:50.178Z,100674.84
2022-07-25T08:18:18.408Z,100661.84
2022-07-25T08:20:50.192Z,100653.09
2022-07-25T08:23:18.819Z,100661.72
2022-07-25T08:25:47.222Z,100656.56
2022-07-25T08:28:14.948Z,100656.50
2022-07-25T08:30:42.799Z,100648.16
2022-07-25T08:33:22.651Z,100655.63
2022-07-25T08:35:56.419Z,100642.41
2022-07-25T08:38:26.149Z,100649.47
2022-07-25T08:40:55.285Z,100627.44
2022-07-25T08:43:22.632Z,100642.59
2022-07-25T08:45:53.045Z,100628.44
2022-07-25T08:48:26.460Z,100627.31
2022-07-25T08:50:57.002Z,100628.13
2022-07-25T08:53:33.573Z,100620.97
2022-07-25T08:56:04.194Z,100630.47
2022-07-25T08:58:35.612Z,100608.47
2022-07-25T09:01:02.892Z,100621.50
2022-07-25T09:03:29.844Z,100612.19
2022-07-25T09:05:56.926Z,100605.22
2022-07-25T09:08:24.461Z,100598.69
2022-07-25T09:10:53.150Z,100595.88
2022-07-25T09:13:23.494Z,100598.25
2022-07-25T09:15:57.148Z,100594.97
2022-07-25T09:18:27.318Z,100588.47
2022-07-25T09:20:59.159Z,100575.56
2022-07-25T09:23:35.438Z,100584.94
2022-07-25T09:26:14.914Z,100570.94
2022-07-25T09:28:48.065Z,100561.69
2022-07-25T09:31:16.964Z,100556.38
2022-07-25T09:33:56.201Z,100551.69
2022-07-25T09:36:28.880Z,100549.94
2022-07-25T09:39:01.098Z,100544.28
2022-07-25T09:41:41.706Z,100540.66
2022-07-25T09:44:20.026Z,100546.34
2022-07-25T09:46:47.480Z,100529.31
2022-07-25T09:49:14.812Z,100523.91
2022-07-25T09:51:43.147Z,100520.63
2022-07-25T09:54:10.421Z,100512.13
2022-07-25T09:56:37.450Z,100516.22
2022-07-25T09:59:06.169Z,100512.47
2022-07-25T10:01:46.022Z,100499.16
2022-07-25T10:04:35.243Z,100489.56
2022-07-25T10:07:10.804Z,100499.16
2022-07-25T10:09:54.084Z,100479.16
2022-07-25T10:12:23.970Z,100485.16
2022-07-25T10:15:13.418Z,100478.84
2022-07-25T10:17:42.044Z,100474.97
2022-07-25T10:20:10.430Z,100468.63
2022-07-25T10:22:58.474Z,100461.31
2022-07-25T10:25:26.192Z,100456.16
2022-07-25T10:28:04.087Z,100441.91
2022-07-25T10:30:39.977Z,100444.25
2022-07-25T10:33:19.849Z,100438.34
2022-07-25T10:35:47.548Z,100440.84
2022-07-25T10:38:14.584Z,100437.69
2022-07-25T10:40:48.818Z,100450.88
2022-07-25T10:43:25.475Z,100439.91
2022-07-25T10:45:59.142Z,100431.59
2022-07-25T10:48:29.725Z,100418.25
2022-07-25T10:51:04.654Z,100423.13
2022-07-25T10:53:38.726Z,100422.94
2022-07-25T10:56:14.295Z,100416.31
2022-07-25T10:58:49.147Z,100409.78
2022-07-25T11:01:31.510Z,100414.19
2022-07-25T11:04:02.169Z,100400.34
2022-07-25T11:06:42.047Z,100402.94
2022-07-25T11:09:25.053Z,100397.47
2022-07-25T11:12:19.534Z,100401.16
2022-07-25T11:15:17.123Z,100397.38
2022-07-25T11:17:53.774Z,100380.88
2022-07-25T11:20:21.139Z,100377.31
2022-07-25T11:22:55.941Z,100374.19
2022-07-25T11:25:23.820Z,100381.41
2022-07-25T11:27:58.006Z,100374.94
2022-07-25T11:30:27.625Z,100370.72
2022-07-25T11:33:02.082Z,100377.63
2022-07-25T11:35:33.681Z,100356.56
2022-07-25T11:38:02.936Z,100355.81
2022-07-25T11:40:32.559Z,100350.88
2022-07-25T11:43:00.161Z,100376.56
2022-07-25T11:45:34.316Z,100355.53
2022-07-25T11:48:13.492Z,100349.56
2022-07-25T11:50:44.922Z,100346.56
2022-07-25T11:53:15.800Z,100341.31
2022-07-25T11:55:43.925Z,100346.06
2022-07-25T11:58:13.908Z,100339.03
2022-07-25T12:00:48.353Z,100347.50
2022-07-25T12:03:21.058Z,100336.38
2022-07-25T12:05:49.708Z,100328.38
2022-07-25T12:08:20.328Z,100321.44
2022-07-25T12:10:50.856Z,100315.72
2022-07-25T12:13:26.839Z,100320.03
2022-07-25T12:15:56.404Z,100314.31
2022-07-25T12:18:23.724Z,100293.31
2022-07-25T12:20:50.936Z,100300.69
2022-07-25T12:23:18.681Z,100299.97
2022-07-25T12:25:47.072Z,100291.56
2022-07-25T12:28:14.875Z,100292.00
2022-07-25T12:30:47.628Z,100275.28
2022-07-25T12:33:17.301Z,100287.25
2022-07-25T12:35:44.856Z,100274.56
2022-07-25T12:38:12.079Z,100262.94
2022-07-25T12:40:39.084Z,100276.09
2022-07-25T12:43:06.069Z,100280.72
2022-07-25T12:45:33.283Z,100274.94
2022-07-25T12:48:00.346Z,100266.44
2022-07-25T12:50:27.508Z,100265.97
2022-07-25T12:52:54.632Z,100270.66
2022-07-25T12:55:22.395Z,100266.72
2022-07-25T12:57:50.546Z,100260.47
2022-07-25T13:00:21.292Z,100251.72
2022-07-25T13:02:51.747Z,100245.34
2022-07-25T13:08:10.309Z,100245.47
2022-07-25T13:10:37.216Z,100234.03
2022-07-25T13:13:04.185Z,100229.94
2022-07-25T13:15:31.216Z,100221.94
2022-07-25T13:17:58.265Z,100230.97
2022-07-25T13:20:25.288Z,100218.44
2022-07-25T13:22:52.346Z,100222.81
2022-07-25T13:25:19.465Z,100221.25
2022-07-25T13:27:48.505Z,100204.06
2022-07-25T13:30:15.966Z,100194.81
2022-07-25T13:32:43.027Z,100216.63
2022-07-25T13:35:10.877Z,100208.31
2022-07-25T13:37:38.011Z,100201.09
2022-07-25T13:40:06.194Z,100189.97
2022-07-25T13:42:33.199Z,100193.63
2022-07-25T13:45:00.676Z,100189.34
2022-07-25T13:47:30.409Z,100184.25
2022-07-25T13:49:57.607Z,100190.84
2022-07-25T13:52:25.403Z,100185.41
2022-07-25T13:54:52.343Z,100179.59
2022-07-25T13:57:19.716Z,100199.63
2022-07-25T13:59:46.666Z,100188.22
2022-07-25T14:02:13.924Z,100170.09
2022-07-25T14:04:41.167Z,100176.97
2022-07-25T14:07:08.219Z,100162.03
2022-07-25T14:09:35.408Z,100157.84
2022-07-25T14:12:02.301Z,100153.41
2022-07-25T14:14:29.269Z,100144.66
2022-07-25T14:16:56.445Z,100146.69
2022-07-25T14:19:27.607Z,100139.66
2022-07-25T14:21:56.623Z,100140.38
2022-07-25T14:24:23.670Z,100138.84
2022-07-25T14:26:50.674Z,100136.88
2022-07-25T14:29:18.188Z,100134.53
2022-07-25T14:31:45.303Z,100141.75
2022-07-25T14:34:13.492Z,100138.28
2022-07-25T14:36:40.767Z,100127.03
2022-07-25T14:39:08.716Z,100125.28
2022-07-25T14:41:36.066Z,100121.19
2022-07-25T14:44:02.969Z,100121.81
2022-07-25T14:46:30.203Z,100116.19
2022-07-25T14:49:00.982Z,100112.56
2022-07-25T14:51:28.522Z,100115.97
2022-07-25T14:53:55.523Z,100103.88
2022-07-25T14:56:22.654Z,100108.31
2022-07-25T14:58:49.693Z,100101.91
2022-07-25T15:01:18.723Z,100098.94
2022-07-25T15:03:46.015Z,100082.06
2022-07-25T15:06:12.997Z,100083.78
2022-07-25T15:08:40.152Z,100087.66
2022-07-25T15:11:07.418Z,100080.47
2022-07-25T15:13:34.848Z,100072.69
2022-07-25T15:16:03.179Z,100075.34
2022-07-25T15:18:30.373Z,100081.81
2022-07-25T15:20:57.580Z,100064.00
2022-07-25T15:23:25.536Z,100073.00
2022-07-25T15:26:01.849Z,100061.28
2022-07-25T15:28:34.466Z,100065.69
2022-07-25T15:31:01.884Z,100067.81
2022-07-25T15:33:29.195Z,100065.56
2022-07-25T15:35:57.646Z,100068.81
2022-07-25T15:38:25.237Z,100061.00
2022-07-25T15:40:52.178Z,100049.72
2022-07-25T15:46:14.815Z,100033.91
2022-07-25T15:48:44.577Z,100039.16
2022-07-25T15:51:11.662Z,100034.72
2022-07-25T15:53:38.989Z,100040.56
2022-07-25T15:56:06.240Z,100037.69
2022-07-25T15:58:33.129Z,100021.38
2022-07-25T16:01:00.327Z,100012.53
2022-07-25T16:03:27.337Z,100015.84
2022-07-25T16:05:56.681Z,100006.41
2022-07-25T16:08:23.731Z,100000.78
2022-07-25T16:10:50.751Z,99996.94
2022-07-25T16:13:18.432Z,99992.63
2022-07-25T16:15:45.492Z,99987.41
2022-07-25T16:18:12.467Z,99978.22
2022-07-25T16:20:39.591Z,99989.06
2022-07-25T16:23:06.566Z,99970.09
2022-07-25T16:25:33.875Z,99975.47
2022-07-25T16:28:00.896Z,99972.56
2022-07-25T16:30:28.628Z,99969.72
2022-07-25T16:32:55.846Z,99966.84
2022-07-25T16:35:23.269Z,99978.41
2022-07-25T16:37:50.760Z,99978.50
2022-07-25T16:40:17.698Z,99968.44
2022-07-25T16:42:46.007Z,99967.88
2022-07-25T16:45:13.330Z,99983.22
2022-07-25T16:47:41.808Z,99977.88
2022-07-25T16:50:09.131Z,99976.56
2022-07-25T16:52:36.129Z,99976.78
2022-07-25T16:55:03.587Z,99972.56
2022-07-25T16:57:32.249Z,99978.44
2022-07-25T17:00:00.843Z,99971.41
2022-07-25T17:02:29.964Z,99963.31
2022-07-25T17:04:57.987Z,99977.44
2022-07-25T17:07:26.529Z,100000.75
2022-07-25T17:09:54.057Z,100028.78
2022-07-25T17:12:21.255Z,100041.84
2022-07-25T17:14:48.513Z,100043.78
2022-07-25T17:17:15.613Z,100069.69
2022-07-25T17:20:08.737Z,100078.53
2022-07-25T17:22:35.932Z,100087.25
2022-07-25T17:25:02.867Z,100075.66
2022-07-25T17:27:30.841Z,100062.03
2022-07-25T17:29:57.749Z,100104.72
2022-07-25T17:32:29.645Z,100194.09
2022-07-25T17:34:57.946Z,100231.34
2022-07-25T17:37:27.627Z,100208.44
2022-07-25T17:39:54.789Z,100212.19
2022-07-25T17:42:24.857Z,100212.22
2022-07-25T17:44:53.277Z,100215.66
2022-07-25T17:47:21.044Z,100209.47
2022-07-25T17:49:50.242Z,100213.97
2022-07-25T17:52:17.763Z,100200.53
2022-07-25T17:54:45.146Z,100198.72
2022-07-25T17:57:12.601Z,100219.75
2022-07-25T17:59:39.598Z,100221.44
2022-07-25T18:02:06.844Z,100236.72
2022-07-25T18:04:35.414Z,100238.91
2022-07-25T18:07:03.834Z,100247.94
2022-07-25T18:09:30.931Z,100247.66
2022-07-25T18:12:00.227Z,100248.44
2022-07-25T18:14:28.555Z,100257.00
2022-07-25T18:16:56.374Z,100230.69
2022-07-25T18:19:25.035Z,100225.47
2022-07-25T18:21:52.264Z,100259.84
2022-07-25T18:24:19.716Z,100254.59
2022-07-25T18:26:46.644Z,100246.56
2022-07-25T18:29:14.093Z,100227.81
2022-07-25T18:31:41.172Z,100204.19
2022-07-25T18:34:08.858Z,100204.84
2022-07-25T18:36:36.212Z,100208.50
2022-07-25T18:39:03.595Z,100212.19
2022-07-25T18:41:30.838Z,100218.56
2022-07-25T18:43:58.400Z,100210.88
2022-07-25T18:46:25.925Z,100217.28
2022-07-25T18:48:53.774Z,100215.50
2022-07-25T18:51:20.878Z,100210.03
2022-07-25T18:53:48.824Z,100205.97
2022-07-25T18:56:16.813Z,100212.09
2022-07-25T18:58:44.546Z,100209.97
2022-07-25T19:01:12.243Z,100214.31
2022-07-25T19:03:40.587Z,100213.31
2022-07-25T19:06:09.282Z,100214.25
2022-07-25T19:08:37.011Z,100210.38
2022-07-25T19:11:04.518Z,100213.09
2022-07-25T19:13:49.048Z,100221.44
2022-07-25T19:16:17.498Z,100230.91
2022-07-25T19:18:45.186Z,100223.16
2022-07-25T19:21:12.110Z,100216.25
2022-07-25T19:23:39.218Z,100205.13
2022-07-25T19:26:06.494Z,100205.56
2022-07-25T19:28:35.238Z,100209.91
2022-07-25T19:31:02.859Z,100217.13
2022-07-25T19:33:34.977Z,100218.72
2022-07-25T19:36:04.859Z,100219.19
2022-07-25T19:38:32.341Z,100225.94
2022-07-25T19:40:59.750Z,100224.78
2022-07-25T19:43:26.886Z,100231.53
2022-07-25T19:45:54.034Z,100215.78
2022-07-25T19:48:24.360Z,100234.06
2022-07-25T19:50:52.354Z,100231.78
2022-07-25T19:53:19.431Z,100230.53
2022-07-25T19:55:46.444Z,100244.31
2022-07-25T19:58:13.531Z,100245.72
2022-07-25T20:00:40.923Z,100248.91
2022-07-25T20:03:07.879Z,100238.44
2022-07-25T20:05:34.992Z,100289.91
2022-07-25T20:08:01.890Z,100296.63
2022-07-25T20:10:28.868Z,100301.78
2022-07-25T20:13:00.962Z,100281.16
2022-07-25T20:15:29.040Z,100287.94
2022-07-25T20:17:56.988Z,100283.56
2022-07-25T20:20:25.163Z,100266.53
2022-07-25T20:22:52.764Z,100271.66
2022-07-25T20:25:19.817Z,100279.22
2022-07-25T20:27:49.502Z,100292.25
2022-07-25T20:30:17.282Z,100291.31
2022-07-25T20:32:44.840Z,100295.16
2022-07-25T20:35:11.872Z,100299.84
2022-07-25T20:37:39.294Z,100312.38
2022-07-25T20:40:08.605Z,100310.16
2022-07-25T20:42:37.115Z,100314.50
2022-07-25T20:45:06.414Z,100323.03
2022-07-25T20:47:34.173Z,100329.44
2022-07-25T20:50:02.112Z,100335.25
2022-07-25T20:52:30.212Z,100338.78
2022-07-25T20:54:57.276Z,100350.16
2022-07-25T20:57:24.347Z,100353.22
2022-07-25T20:59:51.282Z,100366.09
2022-07-25T21:02:18.680Z,100375.72
2022-07-25T21:04:48.362Z,100381.66
2022-07-25T21:07:16.384Z,100399.00
2022-07-25T21:09:43.744Z,100398.53
2022-07-25T21:12:11.149Z,100413.94
2022-07-25T21:14:38.055Z,100419.56
2022-07-25T21:17:05.157Z,100418.09
2022-07-25T21:19:32.520Z,100413.44
2022-07-25T21:21:59.555Z,100438.38
2022-07-25T21:24:26.493Z,100435.97
2022-07-25T21:26:53.617Z,100449.03
2022-07-25T21:29:20.639Z,100468.63
2022-07-25T21:31:47.893Z,100477.97
2022-07-25T21:34:15.601Z,100474.91
2022-07-25T21:36:42.572Z,100463.81
2022-07-25T21:39:09.990Z,100479.09
2022-07-25T21:41:37.922Z,100473.28
2022-07-25T21:44:05.611Z,100503.69
2022-07-25T21:46:35.603Z,100519.78
2022-07-25T21:49:22.911Z,100515.75
2022-07-25T21:52:08.149Z,100497.63
2022-07-25T21:54:36.280Z,100504.84
2022-07-25T21:57:03.419Z,100513.38
2022-07-25T21:59:30.291Z,100491.38
2022-07-25T22:01:59.491Z,100484.16
2022-07-25T22:04:26.589Z,100474.69
2022-07-25T22:06:53.519Z,100470.72
2022-07-25T22:09:20.738Z,100459.63
2022-07-25T22:11:47.649Z,100434.72
2022-07-25T22:14:15.715Z,100443.28
2022-07-25T22:16:58.500Z,100452.97
2022-07-25T22:19:25.580Z,100454.94
2022-07-25T22:21:53.795Z,100447.72
2022-07-25T22:24:20.997Z,100460.13
2022-07-25T22:26:47.919Z,100475.84
2022-07-25T22:29:14.911Z,100465.25
2022-07-25T22:31:42.003Z,100459.31
2022-07-25T22:34:09.008Z,100473.59
2022-07-25T22:36:37.037Z,100474.72
2022-07-25T22:39:05.344Z,100496.56
2022-07-25T22:41:32.434Z,100518.53
2022-07-25T22:44:00.258Z,100513.56
2022-07-25T22:46:29.609Z,100497.84
2022-07-25T22:48:57.799Z,100477.31
2022-07-25T22:51:25.128Z,100481.31
2022-07-25T22:54:01.741Z,100494.94
2022-07-25T22:56:29.252Z,100503.28
2022-07-25T22:58:57.186Z,100494.63
2022-07-25T23:01:24.601Z,100502.00
2022-07-25T23:03:52.058Z,100494.44
2022-07-25T23:06:21.286Z,100502.78
2022-07-25T23:08:49.597Z,100514.03
2022-07-25T23:11:17.028Z,100527.97
2022-07-25T23:13:44.322Z,100535.03
2022-07-25T23:16:11.541Z,100543.22
2022-07-25T23:18:38.849Z,100540.63
2022-07-25T23:21:06.299Z,100542.31
2022-07-25T23:23:33.711Z,100528.22
2022-07-25T23:26:00.665Z,100534.78
2022-07-25T23:28:28.104Z,100536.53
2022-07-25T23:30:55.048Z,100553.84
2022-07-25T23:33:25.328Z,100578.69
2022-07-25T23:35:56.034Z,100581.56
2022-07-25T23:38:23.339Z,100594.53
2022-07-25T23:40:50.579Z,100585.69
2022-07-25T23:43:27.770Z,100597.06
2022-07-25T23:46:05.423Z,100594.19
2022-07-25T23:48:34.348Z,100593.19
2022-07-25T23:51:01.398Z,100598.66
2022-07-25T23:53:28.577Z,100603.13
2022-07-25T23:55:55.512Z,100619.78
2022-07-25T23:58:22.817Z,100607.09
